Time;durP1;ratioP1;P1;durP2;ratioP2;P2;SDS_P1;SDS_P2;PMS_P1;PMS_P2;Temp;Humidity;BMP_temperature;BMP_pressure;BME280_temperature;BME280_humidity;BME280_pressure;Samples;Min_cycle;Max_cycle;Signal;HPM_P1;HPM_P2
2021/08/03 00:01:40;;;;;;;10.68;2.97;;;16.50;99.90;;;;;;4972697;28;20054;-78
2021/08/03 00:04:08;;;;;;;5.68;3.35;;;16.50;99.90;;;;;;4971870;28;20061;-79
2021/08/03 00:06:39;;;;;;;9.98;3.20;;;16.60;99.90;;;;;;4968813;28;20398;-80
2021/08/03 00:09:05;;;;;;;5.95;2.78;;;16.60;99.90;;;;;;4953075;29;20034;-80
2021/08/03 00:11:31;;;;;;;5.85;3.13;;;16.60;99.90;;;;;;4951699;29;20035;-79
2021/08/03 00:13:59;;;;;;;6.80;3.58;;;16.70;99.90;;;;;;4952852;29;20106;-79
2021/08/03 00:16:24;;;;;;;7.10;3.15;;;16.70;99.90;;;;;;4952484;29;20030;-80
2021/08/03 00:18:50;;;;;;;6.63;3.00;;;16.70;99.90;;;;;;4952842;29;20039;-79
2021/08/03 00:21:16;;;;;;;3.55;3.03;;;16.60;99.90;;;;;;4952808;29;20031;-80
2021/08/03 00:23:46;;;;;;;5.97;2.85;;;16.60;99.90;;;;;;4953536;29;20042;-79
2021/08/03 00:26:13;;;;;;;5.40;2.60;;;16.60;99.90;;;;;;4952893;29;20355;-78
2021/08/03 00:28:39;;;;;;;6.18;2.80;;;16.60;99.90;;;;;;4952854;29;20039;-80
2021/08/03 00:31:06;;;;;;;4.82;2.88;;;16.60;99.90;;;;;;4952882;29;20055;-80
2021/08/03 00:33:32;;;;;;;8.57;3.00;;;16.60;99.90;;;;;;4951620;28;20438;-80
2021/08/03 00:35:58;;;;;;;5.72;2.80;;;16.60;99.90;;;;;;4952659;29;20107;-78
2021/08/03 00:38:24;;;;;;;6.38;3.20;;;16.60;99.90;;;;;;4952763;29;20114;-80
2021/08/03 00:40:54;;;;;;;3.97;2.83;;;16.50;99.90;;;;;;4952891;29;20070;-80
2021/08/03 00:43:20;;;;;;;6.38;2.65;;;16.50;99.90;;;;;;4957070;28;20034;-78
2021/08/03 00:45:46;;;;;;;3.45;2.47;;;16.40;99.90;;;;;;4951079;28;20038;-80
2021/08/03 00:48:12;;;;;;;4.18;2.55;;;16.50;99.90;;;;;;4933170;29;20042;-78
2021/08/03 00:50:37;;;;;;;2.95;2.58;;;16.40;99.90;;;;;;4933412;29;20027;-78
2021/08/03 00:53:03;;;;;;;2.90;2.20;;;16.40;99.90;;;;;;4933472;29;20030;-80
2021/08/03 00:55:29;;;;;;;4.07;2.80;;;16.50;99.90;;;;;;4933973;29;20028;-80
2021/08/03 00:57:55;;;;;;;3.35;2.30;;;16.60;99.90;;;;;;4933472;29;20028;-80
2021/08/03 01:00:21;;;;;;;5.40;2.58;;;16.60;99.90;;;;;;4933271;29;20032;-81
2021/08/03 01:02:47;;;;;;;8.02;2.90;;;16.70;99.90;;;;;;4933279;29;20087;-80
2021/08/03 01:05:13;;;;;;;3.67;2.58;;;16.70;99.90;;;;;;4933080;29;20031;-78
2021/08/03 01:07:47;;;;;;;5.45;3.13;;;16.70;99.90;;;;;;4933551;29;20502;-80
2021/08/03 01:10:21;;;;;;;8.75;3.28;;;16.70;99.90;;;;;;4931615;29;20031;-80
2021/08/03 01:13:13;;;;;;;3.70;2.80;;;16.70;99.90;;;;;;4932907;29;20066;-80
2021/08/03 01:15:50;;;;;;;3.78;3.00;;;16.80;99.90;;;;;;4933041;29;20499;-79
2021/08/03 01:18:31;;;;;;;10.90;2.95;;;16.80;99.90;;;;;;4932879;29;20083;-78
2021/08/03 01:21:08;;;;;;;4.65;3.10;;;16.90;99.90;;;;;;4933521;29;20029;-80
2021/08/03 01:23:52;;;;;;;3.55;3.17;;;16.90;99.90;;;;;;4933244;29;20028;-80
2021/08/03 01:26:47;;;;;;;5.05;3.05;;;16.90;99.90;;;;;;4933688;29;20031;-80
2021/08/03 01:29:18;;;;;;;4.95;2.70;;;16.90;99.90;;;;;;4932985;29;20512;-79
2021/08/03 01:31:48;;;;;;;7.07;2.58;;;16.90;99.90;;;;;;4933898;29;20050;-79
2021/08/03 01:34:16;;;;;;;7.88;2.80;;;17.00;99.90;;;;;;4936523;29;20545;-81
2021/08/03 01:36:46;;;;;;;6.90;2.58;;;17.00;99.90;;;;;;4952481;29;20089;-79
2021/08/03 01:39:16;;;;;;;2.92;2.67;;;16.90;99.90;;;;;;4952113;29;20043;-79
2021/08/03 01:41:45;;;;;;;3.20;2.42;;;17.00;99.90;;;;;;4952150;29;20030;-79
2021/08/03 01:44:12;;;;;;;3.50;2.42;;;17.00;99.90;;;;;;4963628;28;20106;-79
2021/08/03 01:46:41;;;;;;;5.03;2.28;;;17.00;99.90;;;;;;4940010;28;20038;-81
2021/08/03 01:49:10;;;;;;;3.00;2.15;;;17.00;99.90;;;;;;4936213;29;20102;-80
2021/08/03 01:51:36;;;;;;;4.03;2.40;;;16.90;99.90;;;;;;4937386;29;20550;-81
2021/08/03 01:54:03;;;;;;;3.17;2.35;;;16.90;99.90;;;;;;4936326;29;20067;-79
2021/08/03 01:56:29;;;;;;;6.00;2.60;;;16.90;99.90;;;;;;4936280;29;20035;-79
2021/08/03 01:58:56;;;;;;;3.60;2.45;;;16.90;99.90;;;;;;4936368;29;20895;-80
2021/08/03 02:01:23;;;;;;;5.05;2.30;;;16.90;99.90;;;;;;4936229;29;20407;-81
2021/08/03 02:03:49;;;;;;;5.82;2.50;;;16.90;99.90;;;;;;4936103;29;20524;-80
2021/08/03 02:06:16;;;;;;;3.67;2.85;;;16.90;99.90;;;;;;4936374;29;20032;-80
2021/08/03 02:08:44;;;;;;;6.63;2.47;;;17.00;99.90;;;;;;4935994;29;20047;-79
2021/08/03 02:11:10;;;;;;;5.22;2.45;;;16.90;99.90;;;;;;4935828;29;20164;-80
2021/08/03 02:13:35;;;;;;;5.18;2.65;;;16.90;99.90;;;;;;4934660;29;20051;-79
2021/08/03 02:16:01;;;;;;;2.75;2.28;;;16.90;99.90;;;;;;4935812;29;20036;-79
2021/08/03 02:18:27;;;;;;;5.75;3.05;;;16.90;99.90;;;;;;4935738;29;20030;-79
2021/08/03 02:20:53;;;;;;;5.03;2.60;;;16.90;99.90;;;;;;4935702;29;20028;-79
2021/08/03 02:23:19;;;;;;;3.05;2.30;;;16.90;99.90;;;;;;4935735;29;20510;-79
2021/08/03 02:25:45;;;;;;;6.90;2.80;;;16.90;99.90;;;;;;4935658;29;20046;-80
2021/08/03 02:28:10;;;;;;;4.28;2.40;;;17.00;99.90;;;;;;4935439;29;20042;-80
2021/08/03 02:30:37;;;;;;;3.00;2.42;;;17.00;99.90;;;;;;4936105;29;20035;-80
2021/08/03 02:33:11;;;;;;;8.30;2.70;;;17.00;99.90;;;;;;4935832;29;20043;-79
2021/08/03 02:35:45;;;;;;;3.17;2.40;;;17.00;99.90;;;;;;4950189;29;20035;-80
2021/08/03 02:38:19;;;;;;;4.85;2.63;;;17.00;99.90;;;;;;4954851;29;20081;-80
2021/08/03 02:40:46;;;;;;;8.60;2.40;;;17.10;99.90;;;;;;4955011;29;20055;-80
2021/08/03 02:43:14;;;;;;;3.35;2.60;;;17.10;99.90;;;;;;4957819;28;20041;-80
2021/08/03 02:45:40;;;;;;;3.58;2.70;;;17.20;99.90;;;;;;4964315;28;20050;-80
2021/08/03 02:48:11;;;;;;;5.68;2.17;;;17.20;99.90;;;;;;4954458;29;20031;-80
2021/08/03 02:50:39;;;;;;;4.15;2.30;;;17.10;99.90;;;;;;4954968;29;20517;-80
2021/08/03 02:53:43;;;;;;;3.05;2.45;;;17.10;99.90;;;;;;4956312;29;20063;-80
2021/08/03 02:56:15;;;;;;;6.32;2.50;;;17.00;99.90;;;;;;4955613;28;20031;-80
2021/08/03 02:58:53;;;;;;;4.68;2.53;;;17.10;99.90;;;;;;4956075;29;20023;-80
2021/08/03 03:01:22;;;;;;;3.90;2.20;;;17.00;99.90;;;;;;4956155;28;20058;-80
2021/08/03 03:03:52;;;;;;;2.83;2.20;;;17.10;99.90;;;;;;4955666;29;20102;-80
2021/08/03 03:06:21;;;;;;;3.70;2.60;;;17.00;99.90;;;;;;4956518;29;20039;-81
2021/08/03 03:08:47;;;;;;;4.15;2.22;;;17.00;99.90;;;;;;4956312;29;20372;-80
2021/08/03 03:11:15;;;;;;;7.47;2.42;;;16.90;99.90;;;;;;4956240;29;20116;-80
2021/08/03 03:13:56;;;;;;;4.65;2.97;;;16.90;99.90;;;;;;4955119;29;20534;-80
2021/08/03 03:16:24;;;;;;;3.95;2.72;;;16.90;99.90;;;;;;4955657;29;20039;-81
2021/08/03 03:18:51;;;;;;;4.65;2.72;;;16.90;99.90;;;;;;4956899;29;20038;-80
2021/08/03 03:21:18;;;;;;;5.93;2.67;;;16.90;99.90;;;;;;4956098;29;20031;-80
2021/08/03 03:23:44;;;;;;;7.70;2.90;;;16.80;99.90;;;;;;4944176;28;20043;-80
2021/08/03 03:26:11;;;;;;;5.20;2.80;;;16.70;99.90;;;;;;4936349;29;20427;-80
2021/08/03 03:28:41;;;;;;;6.13;3.00;;;16.70;99.90;;;;;;4940992;29;20031;-80
2021/08/03 03:31:07;;;;;;;4.97;2.92;;;16.60;99.90;;;;;;4935387;29;20039;-80
2021/08/03 03:33:36;;;;;;;7.07;3.40;;;16.60;99.90;;;;;;4934813;29;20028;-80
2021/08/03 03:36:05;;;;;;;5.85;2.85;;;16.60;99.90;;;;;;4953244;29;20050;-80
2021/08/03 03:38:35;;;;;;;5.45;2.80;;;16.60;99.90;;;;;;4954897;29;20482;-80
2021/08/03 03:41:01;;;;;;;5.93;3.40;;;16.60;99.90;;;;;;4954310;29;20491;-80
2021/08/03 03:43:29;;;;;;;5.22;3.05;;;16.70;99.90;;;;;;4959409;28;20042;-80
2021/08/03 03:46:08;;;;;;;3.05;2.80;;;16.70;99.90;;;;;;4973907;28;20030;-80
2021/08/03 03:48:40;;;;;;;4.10;3.17;;;16.70;99.90;;;;;;4973255;28;20030;-80
2021/08/03 03:51:13;;;;;;;5.25;2.95;;;16.70;99.90;;;;;;4973260;28;20019;-80
2021/08/03 03:53:46;;;;;;;5.22;3.50;;;16.60;99.90;;;;;;4973421;28;20041;-80
2021/08/03 03:56:16;;;;;;;6.43;3.33;;;16.60;99.90;;;;;;4972229;28;20054;-80
2021/08/03 03:58:48;;;;;;;9.95;3.55;;;16.70;99.90;;;;;;4972726;28;20459;-80
2021/08/03 04:01:17;;;;;;;6.35;3.72;;;16.60;99.90;;;;;;4972680;28;20168;-80
2021/08/03 04:03:44;;;;;;;7.82;3.53;;;16.60;99.90;;;;;;4971894;28;20058;-80
2021/08/03 04:06:12;;;;;;;5.05;3.40;;;16.60;99.90;;;;;;4973062;28;20109;-80
2021/08/03 04:08:38;;;;;;;4.57;3.17;;;16.60;99.90;;;;;;4972199;28;20378;-80
2021/08/03 04:11:05;;;;;;;7.90;3.80;;;16.50;99.90;;;;;;4970813;28;20065;-80
2021/08/03 04:13:31;;;;;;;4.53;3.42;;;16.50;99.90;;;;;;4970773;28;20047;-80
2021/08/03 04:15:57;;;;;;;4.75;3.25;;;16.50;99.90;;;;;;4972006;28;20022;-80
2021/08/03 04:18:23;;;;;;;6.70;3.58;;;16.50;99.90;;;;;;4971848;28;20110;-79
2021/08/03 04:20:49;;;;;;;7.40;3.97;;;16.50;99.90;;;;;;4971983;28;20516;-80
2021/08/03 04:23:14;;;;;;;5.63;3.42;;;16.50;99.90;;;;;;4957214;28;20032;-80
2021/08/03 04:25:41;;;;;;;6.80;3.30;;;16.40;99.90;;;;;;4933973;29;20039;-80
2021/08/03 04:28:10;;;;;;;6.55;3.40;;;16.40;99.90;;;;;;4933692;29;20046;-80
2021/08/03 04:30:36;;;;;;;5.60;3.47;;;16.40;99.90;;;;;;4933744;29;20051;-79
2021/08/03 04:33:01;;;;;;;10.50;3.67;;;16.40;99.90;;;;;;4933478;29;20075;-80
2021/08/03 04:35:27;;;;;;;10.43;3.42;;;16.40;99.90;;;;;;4946796;29;20023;-80
2021/08/03 04:37:52;;;;;;;9.13;4.00;;;16.40;99.90;;;;;;4952662;29;20031;-80
2021/08/03 04:40:22;;;;;;;7.07;3.40;;;16.30;99.90;;;;;;4952585;29;20023;-80
2021/08/03 04:42:47;;;;;;;8.43;4.20;;;16.30;99.90;;;;;;4952834;29;20397;-80
2021/08/03 04:45:13;;;;;;;6.20;3.78;;;16.30;99.90;;;;;;4971567;28;20138;-80
2021/08/03 04:47:47;;;;;;;4.75;3.55;;;16.20;99.90;;;;;;4972155;28;20520;-80
2021/08/03 04:50:19;;;;;;;7.45;3.75;;;16.20;99.90;;;;;;4971523;28;20497;-80
2021/08/03 04:52:45;;;;;;;5.47;3.50;;;16.20;99.90;;;;;;4972135;28;20038;-79
2021/08/03 04:55:11;;;;;;;12.07;3.90;;;16.20;99.90;;;;;;4972373;28;20034;-80
2021/08/03 04:57:37;;;;;;;7.50;4.25;;;16.20;99.90;;;;;;4972129;28;20062;-80
2021/08/03 05:00:05;;;;;;;7.20;3.50;;;16.20;99.90;;;;;;4971524;28;20058;-79
2021/08/03 05:02:30;;;;;;;8.10;4.22;;;16.20;99.90;;;;;;4971918;28;20148;-80
2021/08/03 05:04:56;;;;;;;7.32;3.47;;;16.20;99.90;;;;;;4971613;28;20031;-80
2021/08/03 05:07:22;;;;;;;8.02;3.70;;;16.20;99.90;;;;;;4971996;28;20106;-80
2021/08/03 05:09:47;;;;;;;5.95;3.88;;;16.20;99.90;;;;;;4971794;28;20490;-79
2021/08/03 05:12:13;;;;;;;6.10;3.90;;;16.30;99.90;;;;;;4972277;28;20039;-79
2021/08/03 05:14:38;;;;;;;9.13;3.80;;;16.30;99.90;;;;;;4968592;28;20026;-79
2021/08/03 05:17:04;;;;;;;8.13;3.60;;;16.30;99.90;;;;;;4970678;28;20371;-80
2021/08/03 05:19:30;;;;;;;6.68;4.13;;;16.30;99.90;;;;;;4972761;28;20122;-80
2021/08/03 05:21:55;;;;;;;8.35;3.63;;;16.40;99.90;;;;;;4975364;28;20035;-80
2021/08/03 05:24:25;;;;;;;8.27;3.38;;;16.40;99.90;;;;;;4959250;28;20631;-79
2021/08/03 05:26:55;;;;;;;6.35;3.20;;;16.40;99.90;;;;;;4956175;29;20043;-80
2021/08/03 05:29:21;;;;;;;4.53;3.42;;;16.40;99.90;;;;;;4956440;29;20046;-80
2021/08/03 05:31:47;;;;;;;8.63;3.60;;;16.40;99.90;;;;;;4956455;28;20031;-80
2021/08/03 05:34:12;;;;;;;3.45;2.78;;;16.40;99.90;;;;;;4954204;28;20054;-79
2021/08/03 05:36:39;;;;;;;6.53;3.45;;;16.50;99.90;;;;;;4952623;29;20118;-80
2021/08/03 05:39:06;;;;;;;7.57;3.13;;;16.50;99.90;;;;;;4955773;28;20434;-80
2021/08/03 05:41:32;;;;;;;11.55;3.75;;;16.40;99.90;;;;;;4956318;29;20036;-78
2021/08/03 05:43:58;;;;;;;6.07;3.55;;;16.50;99.90;;;;;;4965118;28;20493;-78
2021/08/03 05:46:23;;;;;;;9.43;3.63;;;16.50;99.90;;;;;;4974573;28;20041;-78
2021/08/03 05:48:49;;;;;;;6.88;3.67;;;16.50;99.90;;;;;;4974350;28;20038;-80
2021/08/03 05:51:15;;;;;;;10.35;3.53;;;16.50;99.90;;;;;;4974848;28;20089;-80
2021/08/03 05:53:40;;;;;;;7.47;3.55;;;16.50;99.90;;;;;;4974908;28;20034;-79
2021/08/03 05:56:06;;;;;;;5.70;3.00;;;16.50;99.90;;;;;;4974675;28;20486;-79
2021/08/03 05:58:32;;;;;;;5.90;3.20;;;16.50;99.90;;;;;;4975018;28;20069;-79
2021/08/03 06:00:58;;;;;;;8.55;3.40;;;16.50;99.90;;;;;;4975029;28;20033;-80
2021/08/03 06:03:23;;;;;;;8.38;3.88;;;16.50;99.90;;;;;;4974128;28;20058;-80
2021/08/03 06:05:49;;;;;;;5.22;3.58;;;16.50;99.90;;;;;;4969237;28;20036;-79
2021/08/03 06:08:22;;;;;;;8.80;3.47;;;16.50;99.90;;;;;;4955135;28;20510;-80
2021/08/03 06:10:51;;;;;;;9.32;3.67;;;16.50;99.90;;;;;;4969338;28;20026;-79
2021/08/03 06:13:18;;;;;;;6.65;3.22;;;16.60;99.90;;;;;;4970110;28;20074;-78
2021/08/03 06:15:46;;;;;;;13.13;3.67;;;16.60;99.90;;;;;;4953618;29;20711;-80
2021/08/03 06:18:18;;;;;;;10.48;3.30;;;16.60;99.90;;;;;;4954433;28;20033;-79
2021/08/03 06:20:44;;;;;;;6.82;3.50;;;16.70;99.90;;;;;;4955107;29;20439;-80
2021/08/03 06:23:11;;;;;;;9.52;3.40;;;16.70;99.90;;;;;;4952797;28;20038;-79
2021/08/03 06:25:43;;;;;;;6.75;3.60;;;16.70;99.90;;;;;;4952760;28;20038;-79
2021/08/03 06:28:09;;;;;;;15.07;3.22;;;16.70;99.90;;;;;;4957440;28;20031;-80
2021/08/03 06:30:38;;;;;;;7.05;3.08;;;16.70;99.90;;;;;;4954785;28;20505;-80
2021/08/03 06:33:05;;;;;;;5.80;2.97;;;16.70;99.90;;;;;;4954813;28;20075;-79
2021/08/03 06:35:31;;;;;;;5.72;3.15;;;16.70;99.90;;;;;;4955232;29;20498;-79
2021/08/03 06:37:57;;;;;;;13.02;3.13;;;16.70;99.90;;;;;;4954127;28;20406;-79
2021/08/03 06:40:23;;;;;;;6.90;3.13;;;16.70;99.90;;;;;;4953370;28;20027;-79
2021/08/03 06:42:56;;;;;;;4.63;2.97;;;16.70;99.90;;;;;;4953943;28;20027;-79
2021/08/03 06:45:29;;;;;;;4.35;3.00;;;16.70;99.90;;;;;;4971696;28;20117;-79
2021/08/03 06:48:01;;;;;;;6.75;2.75;;;16.80;99.90;;;;;;4972724;28;20031;-80
2021/08/03 06:50:30;;;;;;;10.63;3.60;;;16.70;99.90;;;;;;4953364;28;20038;-79
2021/08/03 06:52:57;;;;;;;13.27;3.97;;;16.80;99.90;;;;;;4953751;28;20031;-79
2021/08/03 06:55:31;;;;;;;11.98;2.97;;;16.80;99.90;;;;;;4953549;28;20443;-80
2021/08/03 06:58:03;;;;;;;8.68;3.40;;;16.90;99.90;;;;;;4953262;28;20538;-80
2021/08/03 07:00:37;;;;;;;10.65;3.63;;;16.90;99.90;;;;;;4953386;28;20030;-79
2021/08/03 07:03:05;;;;;;;8.32;3.00;;;17.00;99.90;;;;;;4963439;28;20545;-79
2021/08/03 07:05:33;;;;;;;7.00;2.78;;;17.00;99.90;;;;;;4971978;28;20039;-79
2021/08/03 07:07:59;;;;;;;5.63;2.92;;;17.10;99.90;;;;;;4955310;28;20034;-80
2021/08/03 07:10:26;;;;;;;9.65;3.25;;;17.20;99.90;;;;;;4972129;28;20109;-80
2021/08/03 07:12:53;;;;;;;6.88;3.13;;;17.20;99.90;;;;;;4970873;28;20035;-79
2021/08/03 07:15:20;;;;;;;9.50;3.30;;;17.30;99.90;;;;;;4951856;28;20031;-79
2021/08/03 07:17:48;;;;;;;7.38;3.30;;;17.40;99.90;;;;;;4952665;28;20086;-80
2021/08/03 07:20:15;;;;;;;7.53;2.88;;;17.40;99.90;;;;;;4956405;28;20033;-80
2021/08/03 07:22:42;;;;;;;7.07;3.20;;;17.50;99.90;;;;;;4970497;28;20118;-79
2021/08/03 07:25:10;;;;;;;12.30;3.30;;;17.60;99.90;;;;;;4938070;28;20118;-80
2021/08/03 07:27:36;;;;;;;4.30;2.72;;;17.70;99.90;;;;;;4972256;28;20050;-79
2021/08/03 07:30:03;;;;;;;7.38;3.03;;;17.90;99.90;;;;;;4970427;28;20523;-79
2021/08/03 07:32:29;;;;;;;6.85;3.00;;;18.00;99.90;;;;;;4962598;28;20038;-79
2021/08/03 07:34:55;;;;;;;7.03;2.80;;;18.10;99.90;;;;;;4963158;28;20019;-80
2021/08/03 07:37:20;;;;;;;7.85;2.50;;;18.20;99.90;;;;;;4952420;28;20534;-80
2021/08/03 07:39:46;;;;;;;4.45;2.47;;;18.20;99.90;;;;;;4953396;28;20520;-80
2021/08/03 07:42:11;;;;;;;6.60;3.17;;;18.10;99.90;;;;;;4952150;28;20031;-79
2021/08/03 07:44:37;;;;;;;8.07;2.92;;;18.00;99.90;;;;;;4957853;28;20035;-79
2021/08/03 07:47:04;;;;;;;10.93;2.90;;;18.00;99.90;;;;;;4951895;28;20035;-79
2021/08/03 07:49:29;;;;;;;4.50;2.90;;;17.90;99.90;;;;;;4951677;28;20082;-79
2021/08/03 07:51:57;;;;;;;9.13;3.13;;;17.80;99.90;;;;;;4952631;28;20074;-79
2021/08/03 07:54:23;;;;;;;6.55;3.40;;;17.70;99.90;;;;;;4962244;28;20385;-79
2021/08/03 07:56:48;;;;;;;6.70;2.90;;;17.60;99.90;;;;;;4972105;28;20035;-79
2021/08/03 07:59:14;;;;;;;6.20;3.28;;;17.60;99.90;;;;;;4960232;28;20030;-78
2021/08/03 08:01:40;;;;;;;8.45;3.40;;;17.60;99.90;;;;;;4953725;28;20039;-79
2021/08/03 08:04:05;;;;;;;6.72;3.22;;;17.50;99.90;;;;;;4958644;28;20566;-80
2021/08/03 08:06:31;;;;;;;8.20;3.50;;;17.40;99.90;;;;;;4971986;28;20414;-79
2021/08/03 08:08:57;;;;;;;7.63;3.22;;;17.40;99.90;;;;;;4953583;28;20495;-80
2021/08/03 08:11:23;;;;;;;7.57;3.58;;;17.50;99.90;;;;;;4951657;28;20042;-80
2021/08/03 08:13:49;;;;;;;8.90;3.35;;;17.60;99.90;;;;;;4967654;28;20039;-79
2021/08/03 08:16:15;;;;;;;9.48;3.40;;;17.60;99.90;;;;;;4966847;28;20030;-80
2021/08/03 08:18:40;;;;;;;9.65;3.53;;;17.70;99.90;;;;;;4971456;28;20037;-80
2021/08/03 08:21:06;;;;;;;6.32;3.00;;;17.70;99.90;;;;;;4971592;28;20154;-79
2021/08/03 08:23:34;;;;;;;6.85;3.25;;;17.70;99.90;;;;;;4961672;28;20066;-80
2021/08/03 08:26:00;;;;;;;10.20;3.38;;;17.60;99.90;;;;;;4972060;28;20046;-79
2021/08/03 08:28:26;;;;;;;8.07;3.25;;;17.50;99.90;;;;;;4972151;28;20080;-79
2021/08/03 08:30:52;;;;;;;9.80;3.55;;;17.40;99.90;;;;;;4965627;28;20054;-80
2021/08/03 08:33:18;;;;;;;7.07;3.85;;;17.30;99.90;;;;;;4948972;28;20023;-78
2021/08/03 08:35:43;;;;;;;6.10;3.53;;;17.20;99.90;;;;;;4951279;28;20027;-79
2021/08/03 08:38:09;;;;;;;7.60;3.60;;;17.10;99.90;;;;;;4952841;29;20059;-79
2021/08/03 08:40:35;;;;;;;9.88;3.33;;;17.00;99.90;;;;;;4961742;28;20120;-78
2021/08/03 08:43:01;;;;;;;9.25;3.80;;;17.10;99.90;;;;;;4969307;28;20031;-79
2021/08/03 08:45:27;;;;;;;14.68;4.47;;;17.10;99.90;;;;;;4969868;28;20035;-79
2021/08/03 08:47:53;;;;;;;11.02;4.05;;;17.30;99.90;;;;;;4970587;28;20069;-79
2021/08/03 08:50:21;;;;;;;7.07;4.28;;;17.30;99.90;;;;;;4969312;28;20446;-79
2021/08/03 08:52:53;;;;;;;15.48;4.30;;;17.30;99.90;;;;;;4971237;28;20027;-79
2021/08/03 08:55:20;;;;;;;99.15;12.27;;;17.40;99.90;;;;;;4968610;28;20401;-79
2021/08/03 08:57:50;;;;;;;51.17;7.25;;;17.50;99.90;;;;;;4971425;28;20101;-79
2021/08/03 09:00:16;;;;;;;27.88;5.63;;;17.50;99.90;;;;;;4969696;28;20394;-79
2021/08/03 09:02:47;;;;;;;18.65;4.30;;;17.60;99.90;;;;;;4942895;28;20418;-78
2021/08/03 09:05:14;;;;;;;11.10;3.42;;;17.70;99.90;;;;;;4951225;28;20043;-79
2021/08/03 09:07:54;;;;;;;12.75;3.53;;;17.60;99.90;;;;;;4959781;28;20494;-78
2021/08/03 09:10:37;;;;;;;18.48;3.92;;;17.50;99.90;;;;;;4950706;29;20039;-79
2021/08/03 09:13:07;;;;;;;8.13;3.72;;;17.40;99.90;;;;;;4951546;28;20035;-78
2021/08/03 09:15:36;;;;;;;6.82;3.40;;;17.30;99.90;;;;;;4951488;28;20028;-78
2021/08/03 09:18:29;;;;;;;7.72;4.40;;;17.20;99.90;;;;;;4950359;28;20039;-78
2021/08/03 09:20:55;;;;;;;9.85;4.00;;;17.20;99.90;;;;;;4967987;28;20170;-78
2021/08/03 09:23:41;;;;;;;7.50;3.97;;;17.10;99.90;;;;;;4966516;28;20070;-78
2021/08/03 09:26:08;;;;;;;5.25;3.70;;;17.00;99.90;;;;;;4951797;28;20039;-78
2021/08/03 09:28:34;;;;;;;7.82;4.05;;;16.90;99.90;;;;;;4964942;28;20109;-78
2021/08/03 09:31:04;;;;;;;10.27;4.75;;;16.90;99.90;;;;;;4941037;29;20040;-78
2021/08/03 09:33:30;;;;;;;12.88;4.90;;;16.80;99.90;;;;;;4951537;28;20142;-78
2021/08/03 09:35:56;;;;;;;8.55;4.20;;;16.70;99.90;;;;;;4950761;28;20122;-77
2021/08/03 09:38:22;;;;;;;9.07;4.90;;;16.70;99.90;;;;;;4965384;28;20034;-77
2021/08/03 09:40:50;;;;;;;12.90;4.75;;;16.80;99.90;;;;;;4964761;28;20514;-77
2021/08/03 09:43:24;;;;;;;9.52;4.40;;;16.90;99.90;;;;;;4950324;28;20441;-77
2021/08/03 09:45:50;;;;;;;8.38;4.53;;;17.10;99.90;;;;;;4951996;28;20054;-78
2021/08/03 09:48:21;;;;;;;8.60;4.13;;;17.40;99.90;;;;;;4953421;28;20494;-77
2021/08/03 09:51:12;;;;;;;9.95;4.47;;;17.40;99.90;;;;;;4969875;28;20062;-77
2021/08/03 09:53:52;;;;;;;8.75;3.58;;;17.50;99.90;;;;;;4943876;28;20518;-77
2021/08/03 09:56:17;;;;;;;5.55;3.70;;;17.50;99.90;;;;;;4950710;28;20039;-79
2021/08/03 09:58:59;;;;;;;9.10;3.95;;;17.50;99.90;;;;;;4951146;28;20024;-78
2021/08/03 10:01:26;;;;;;;13.13;4.43;;;17.50;99.90;;;;;;4950285;28;20063;-77
2021/08/03 10:03:53;;;;;;;7.30;3.97;;;17.40;99.90;;;;;;4949277;28;20062;-78
2021/08/03 10:06:19;;;;;;;7.15;4.10;;;17.40;99.90;;;;;;4942785;28;20406;-78
2021/08/03 10:08:50;;;;;;;8.80;4.78;;;17.20;99.90;;;;;;4945339;28;20038;-79
2021/08/03 10:11:16;;;;;;;16.58;10.80;;;17.10;99.90;;;;;;4944653;28;20498;-79
2021/08/03 10:13:44;;;;;;;8.13;4.65;;;17.10;99.90;;;;;;4945737;28;20821;-78
2021/08/03 10:16:10;;;;;;;7.90;4.10;;;17.10;99.90;;;;;;4944590;28;20034;-77
2021/08/03 10:18:41;;;;;;;7.28;4.60;;;17.20;99.90;;;;;;4944033;28;20575;-81
2021/08/03 10:21:14;;;;;;;9.60;4.53;;;17.40;99.90;;;;;;4947085;28;20064;-80
2021/08/03 10:23:41;;;;;;;8.48;5.40;;;17.70;99.90;;;;;;4950342;28;20031;-76
2021/08/03 10:26:15;;;;;;;8.23;5.55;;;18.00;99.90;;;;;;4945746;28;20434;-76
2021/08/03 10:28:42;;;;;;;10.73;4.32;;;18.40;99.90;;;;;;4943846;28;20039;-76
2021/08/03 10:31:35;;;;;;;9.93;4.30;;;18.30;99.90;;;;;;4945072;28;20032;-76
2021/08/03 10:34:00;;;;;;;6.63;4.50;;;18.00;99.90;;;;;;4933032;28;20181;-80
2021/08/03 10:36:41;;;;;;;7.75;4.45;;;17.80;99.90;;;;;;4942452;28;20564;-80
2021/08/03 10:39:46;;;;;;;6.05;4.40;;;17.60;99.90;;;;;;4945260;28;20023;-76
2021/08/03 10:42:12;;;;;;;6.55;4.32;;;17.50;99.90;;;;;;4946157;28;20046;-76
2021/08/03 10:44:40;;;;;;;7.95;4.72;;;17.50;99.90;;;;;;4943893;28;20039;-81
2021/08/03 10:47:32;;;;;;;6.93;4.57;;;17.60;99.90;;;;;;4945652;28;20554;-77
2021/08/03 10:50:03;;;;;;;6.78;4.80;;;18.00;99.90;;;;;;4942611;28;20182;-78
2021/08/03 10:52:52;;;;;;;10.45;4.95;;;18.20;99.90;;;;;;4946949;28;20027;-77
2021/08/03 10:55:39;;;;;;;5.53;5.00;;;18.40;99.90;;;;;;4943806;28;20031;-77
2021/08/03 10:58:10;;;;;;;9.27;5.90;;;18.60;99.90;;;;;;4944738;28;20035;-77
2021/08/03 11:00:48;;;;;;;6.97;5.25;;;18.70;99.90;;;;;;4944078;28;20569;-77
2021/08/03 11:03:32;;;;;;;6.78;5.03;;;18.70;99.90;;;;;;4944970;28;20059;-80
2021/08/03 11:06:03;;;;;;;9.05;5.50;;;18.60;99.90;;;;;;4946134;29;20087;-79
2021/08/03 11:08:46;;;;;;;9.15;4.72;;;18.70;99.90;;;;;;4944080;28;20039;-82
2021/08/03 11:11:22;;;;;;;6.15;3.72;;;18.60;99.90;;;;;;4944252;28;20066;-80
2021/08/03 11:13:50;;;;;;;5.40;4.00;;;18.70;99.90;;;;;;4933823;28;20113;-80
2021/08/03 11:16:24;;;;;;;7.53;3.90;;;18.70;99.90;;;;;;4941475;28;20039;-80
2021/08/03 11:18:55;;;;;;;4.90;4.05;;;18.40;99.90;;;;;;4940502;28;20142;-79
2021/08/03 11:21:25;;;;;;;8.15;3.08;;;18.50;99.90;;;;;;4945322;29;20033;-79
2021/08/03 11:24:00;;;;;;;5.35;3.70;;;18.40;99.90;;;;;;4945111;28;20125;-79
2021/08/03 11:26:29;;;;;;;6.30;3.42;;;18.40;99.90;;;;;;4944578;28;20070;-80
2021/08/03 11:29:15;;;;;;;4.80;3.10;;;18.50;99.90;;;;;;4942693;28;20038;-80
2021/08/03 11:31:41;;;;;;;4.63;3.05;;;18.70;99.90;;;;;;4943642;28;20069;-79
2021/08/03 11:34:07;;;;;;;4.30;2.65;;;18.90;99.90;;;;;;4943409;28;20113;-79
2021/08/03 11:36:35;;;;;;;4.55;2.60;;;18.90;99.90;;;;;;4945930;28;20028;-79
2021/08/03 11:39:18;;;;;;;4.95;2.92;;;18.90;99.90;;;;;;4945085;29;20669;-79
2021/08/03 11:41:48;;;;;;;4.43;2.70;;;19.00;99.90;;;;;;4944158;28;20031;-80
2021/08/03 11:44:15;;;;;;;3.85;2.78;;;18.80;99.90;;;;;;4944932;28;20062;-78
2021/08/03 11:46:43;;;;;;;6.30;2.95;;;19.10;99.90;;;;;;4942787;28;20027;-78
2021/08/03 11:49:10;;;;;;;12.05;5.28;;;19.70;99.90;;;;;;4941920;28;20070;-78
2021/08/03 11:51:43;;;;;;;13.13;6.70;;;19.90;99.90;;;;;;4943093;28;20043;-78
2021/08/03 11:54:16;;;;;;;4.78;2.80;;;20.40;99.90;;;;;;4942740;28;20067;-77
2021/08/03 11:56:43;;;;;;;6.80;3.75;;;20.20;99.90;;;;;;4942196;28;20537;-78
2021/08/03 11:59:11;;;;;;;5.15;2.60;;;19.90;99.90;;;;;;4943671;28;20557;-78
2021/08/03 12:01:47;;;;;;;5.00;3.75;;;19.80;99.90;;;;;;4943404;28;20065;-78
2021/08/03 12:04:15;;;;;;;4.07;2.50;;;19.60;99.90;;;;;;4942532;28;20090;-78
2021/08/03 12:06:41;;;;;;;2.83;2.13;;;19.40;99.90;;;;;;4942683;28;20580;-80
2021/08/03 12:09:08;;;;;;;5.70;2.55;;;19.70;99.90;;;;;;4944948;28;20039;-79
2021/08/03 12:11:34;;;;;;;3.83;2.42;;;19.50;99.90;;;;;;4944787;28;20046;-79
2021/08/03 12:14:12;;;;;;;3.22;2.40;;;19.70;99.90;;;;;;4941179;28;20046;-79
2021/08/03 12:16:42;;;;;;;6.93;2.45;;;19.50;99.90;;;;;;4942898;28;20020;-79
2021/08/03 12:19:30;;;;;;;2.65;2.03;;;19.60;99.90;;;;;;4942538;28;20093;-81
2021/08/03 12:21:56;;;;;;;3.15;2.08;;;20.30;99.90;;;;;;4942959;28;20031;-80
2021/08/03 12:24:22;;;;;;;3.22;2.03;;;20.40;99.90;;;;;;4942306;28;20460;-79
2021/08/03 12:26:48;;;;;;;3.17;1.85;;;20.00;99.90;;;;;;4942313;28;20027;-79
2021/08/03 12:29:14;;;;;;;4.25;2.10;;;19.60;99.90;;;;;;4940493;28;20035;-79
2021/08/03 12:31:43;;;;;;;4.50;2.13;;;19.40;99.90;;;;;;4944268;28;20058;-79
2021/08/03 12:34:18;;;;;;;2.60;2.00;;;19.20;99.90;;;;;;4941224;28;20042;-80
2021/08/03 12:36:50;;;;;;;4.25;2.17;;;19.20;99.90;;;;;;4943629;28;20086;-79
2021/08/03 12:39:27;;;;;;;2.53;2.28;;;19.20;99.90;;;;;;4942741;28;20038;-79
2021/08/03 12:44:59;;;;;;;2.78;2.13;;;19.20;99.90;;;;;;4947274;28;20099;-80
2021/08/03 12:47:27;;;;;;;5.50;2.03;;;19.50;99.90;;;;;;4945035;28;20031;-80
2021/08/03 12:50:13;;;;;;;2.22;1.73;;;19.80;99.90;;;;;;4943163;28;20384;-79
2021/08/03 12:52:55;;;;;;;3.30;2.05;;;19.80;99.90;;;;;;4943790;28;20039;-79
2021/08/03 12:55:55;;;;;;;3.10;2.08;;;19.70;99.90;;;;;;4944404;28;20410;-80
2021/08/03 12:58:40;;;;;;;3.65;1.80;;;19.60;99.90;;;;;;4942183;28;20043;-79
2021/08/03 13:01:19;;;;;;;5.38;2.60;;;19.30;99.90;;;;;;4941212;28;20031;-79